COUO2: Red River nr Courtney, OK

                                SHEF ID:       COUO2     Red River nr Courtney, OK
STATION TYPE:

PRECIP ELEVATION STAGE RIV-FLOW BAT-LOAD
in ft ft cfs volt
Ccp-Rev Ccp-Rev Ccp-Rev Ccp-Rev Ccp-Rev
(America/Chicago)
03/23 00:00 ---- ---- 11.34 1013 11.93
03/23 01:00 ---- ---- 11.32 1000 11.93
03/23 02:00 ---- ---- 11.33 1006 11.93
03/23 03:00 ---- ---- 11.31 991 11.93
03/23 04:00 ---- ---- 11.31 991 11.93
03/23 05:00 ---- ---- 11.33 1006 11.93
03/23 06:00 ---- ---- 11.30 982 11.93
03/23 07:00 ---- ---- 11.31 991 11.93
03/23 08:00 ---- ---- 11.29 974 11.93
03/23 09:00 ---- ---- 11.30 982 12.09
03/23 10:00 ---- ---- 11.29 974 12.33
03/23 11:00 ---- ---- 11.30 982 12.33
03/23 12:00 ---- ---- 11.28 965 12.33
03/23 13:00 ---- ---- 11.30 982 12.25
03/23 14:00 ---- ---- 11.33 1006 12.25
03/23 15:00 ---- ---- 11.32 1000 12.17
03/23 16:00 ---- ---- 11.36 1026 12.17
03/23 17:00 ---- ---- 11.34 1013 12.09
03/23 18:00 ---- ---- 11.34 1013 12.09
03/23 19:00 ---- ---- 11.28 965 12.09
03/23 20:00 ---- ---- 11.35 1019 12.09
03/23 21:00 ---- ---- 11.34 1013 12.01
03/23 22:00 ---- ---- 11.34 1013 12.01
03/23 23:00 ---- ---- 11.35 1019 12.01
Data processed at Tue 24Mar2026 04:41 GMT

NOTICE: If you are parsing this page

Please convert to using our Data API. Starting early 2026 we will be migrating to: https://water.usace.army.mil with modern pages rendered in JavaScript. When this migration completes you will no longer be able to scrape this page! CWMSDataAPI (CDA)

Timeseries IDs (TSIDs)

TSIDs used from left to right in the data table
COUT.Precip-Inc.Total.1Hour.1Hour.Ccp-Rev
COUT.Stage.Inst.1Hour.0.Ccp-Rev
COUT.Flow.Inst.1Hour.0.Ccp-Rev
COUT.Volt-Battery Load.Inst.1Hour.0.Ccp-Rev

                            

All information presented herein is the property of the government of the United States of America and may be revised or deleted at any time without prior notice. Dissemination of this information without the expressed written consent of the Public Affairs Office, Tulsa District U.S. Army Corps of Engineers is strictly prohibited. These data are gathered electronically and, as presented, have NOT undergone any form of quality control. These data are NOT guaranteed to be valid or correct.